ADDS METAR Data INFO
IDs: Format: Raw Decoded Include TAF

Data at: 1818 UTC 24 Nov 2017

KAFO 241815Z AUTO 10SM DZ BKN023 OVC029 03/02 A3006 RMK AO2
KAFO 241755Z AUTO 10SM -RA SCT017 SCT023 OVC029 03/01 A3005 RMK AO2
KAFO 241735Z AUTO 30007KT 7SM RA BKN021 OVC027 04/01 A3006 RMK AO2
KAFO 241715Z AUTO 10SM -RA BKN019 BKN026 OVC055 03/01 A3004 RMK AO2
KAFO 241655Z AUTO 10SM -RA SCT021 BKN034 OVC065 03/02 A3003 RMK AO2
KAFO 241635Z AUTO 30011G19KT 4SM RA SCT019 BKN025 OVC034 03/02 A3003 RMK AO2
KAFO 241615Z AUTO 26009G14KT 160V310 10SM SCT028 OVC034 05/02 A3000 RMK AO2
KAFO 241555Z AUTO 20005G17KT 10SM BKN039 BKN045 OVC050 05/02 A2999 RMK AO2
KAFO 241535Z AUTO 24007KT 10SM -DZ SCT030 BKN046 OVC080 06/01 A2998 RMK AO2
KAFO 241515Z AUTO 21009G17KT 180V250 10SM -RA SCT034 BKN050 OVC065 05/01 A2998 RMK AO2
KAFO 241455Z AUTO 23007G14KT 180V240 10SM -DZ SCT046 SCT055 OVC075 05/01 A2997 RMK AO2
KAFO 241435Z AUTO 18010KT 10SM SCT065 OVC075 05/01 A2996 RMK AO2
KAFO 241415Z AUTO 20006KT 10SM SCT050 BKN085 BKN095 05/01 A2996 RMK AO2
KAFO 241355Z AUTO 23007KT 10SM SCT070 BKN080 05/01 A2997 RMK AO2
KAFO 241335Z AUTO 23007KT 10SM SCT055 SCT070 OVC085 05/00 A2997 RMK AO2
KAFO 241315Z AUTO 22007KT 10SM SCT060 OVC070 06/00 A2996 RMK AO2
KAFO 241255Z AUTO 23007KT 10SM SCT046 SCT060 BKN080 04/00 A2996 RMK AO2
KAFO 241235Z AUTO 22005KT 10SM SCT046 SCT080 05/00 A2996 RMK AO2
KAFO 241215Z AUTO 19005KT 10SM BKN046 BKN050 BKN080 05/00 A2996 RMK AO2
KAFO 241155Z AUTO 00000KT 10SM BKN046 BKN050 BKN085 05/00 A2997 RMK AO2
KAFO 241135Z AUTO 10SM BKN046 OVC075 04/00 A2997 RMK AO2
KAFO 241115Z AUTO 10SM BKN046 BKN075 05/00 A2997 RMK AO2
KAFO 241055Z AUTO 03004KT 10SM BKN048 BKN050 BKN090 03/00 A2997 RMK AO2
KAFO 241035Z AUTO 06003KT 10SM SCT050 SCT090 06/00 A2998 RMK AO2
KAFO 241015Z AUTO 18005KT 10SM SCT060 SCT090 06/00 A2998 RMK AO2
KAFO 240955Z AUTO 22003KT 10SM SCT050 SCT060 SCT080 07/00 A2999 RMK AO2
KAFO 240935Z AUTO 21004KT 10SM SCT060 SCT070 06/00 A2998 RMK AO2
KAFO 240915Z AUTO 20008KT 10SM SCT060 BKN080 07/00 A2998 RMK AO2
KAFO 240855Z AUTO 18011G21KT 10SM SCT060 BKN080 08/00 A2999 RMK AO2
KAFO 240835Z AUTO 16011G21KT 10SM SCT065 SCT080 08/00 A2999 RMK AO2
KAFO 240815Z AUTO 15009G15KT 10SM SCT085 SCT090 07/01 A2999 RMK AO2
KAFO 240755Z AUTO 17009G15KT 10SM SCT060 BKN095 06/01 A2999 RMK AO2
KAFO 240735Z AUTO 19007G18KT 10SM SCT060 OVC095 07/01 A3001 RMK AO2
KAFO 240715Z AUTO 15003KT 10SM SCT060 OVC095 06/01 A3001 RMK AO2
KAFO 240655Z AUTO 00000KT 10SM OVC060 08/01 A3002 RMK AO2
KAFO 240635Z AUTO 20005KT 10SM OVC065 07/01 A3003 RMK AO2
KAFO 240615Z AUTO 14005G17KT 10SM OVC065 08/01 A3003 RMK AO2
KAFO 240555Z AUTO 16013G20KT 10SM OVC065 09/02 A3004 RMK AO2
KAFO 240535Z AUTO 10SM OVC065 07/03 A3005 RMK AO2
KAFO 240515Z AUTO 20009KT 10SM OVC065 06/03 A3005 RMK AO2
KAFO 240455Z AUTO 15011G19KT 10SM SCT033 OVC065 09/03 A3006 RMK AO2
KAFO 240435Z AUTO 14007KT 10SM SCT033 SCT038 OVC060 08/03 A3007 RMK AO2
KAFO 240415Z AUTO 10SM -RA BKN035 OVC065 07/04 A3009 RMK AO2
KAFO 240355Z AUTO 14005KT 10SM RA BKN033 BKN041 OVC048 07/04 A3011 RMK AO2
KAFO 240335Z AUTO 21009KT 10SM RA OVC035 08/03 A3011 RMK AO2
KAFO 240315Z AUTO 10SM -RA OVC037 08/03 A3011 RMK AO2
KAFO 240255Z AUTO 20008KT 10SM BKN043 OVC050 08/03 A3011 RMK AO2
KAFO 240235Z AUTO 19014G19KT 10SM RA OVC044 07/02 A3011 RMK AO2
KAFO 240215Z AUTO 19011G19KT 10SM -RA BKN048 OVC055 08/02 A3010 RMK AO2
KAFO 240155Z AUTO 10SM BKN048 OVC055 08/02 A3009 RMK AO2
KAFO 240135Z AUTO 17008G18KT 10SM OVC048 10/02 A3010 RMK AO2
KAFO 240115Z AUTO 15009G16KT 10SM OVC050 09/02 A3011 RMK AO2
KAFO 240055Z AUTO 10SM OVC050 08/02 A3011 RMK AO2
KAFO 240035Z AUTO 10SM BKN060 OVC075 09/02 A3011 RMK AO2
KAFO 240015Z AUTO 16010KT 10SM BKN060 BKN120 10/02 A3013 RMK AO2
KAFO 232355Z AUTO 22006KT 10SM BKN060 OVC120 10/02 A3013 RMK AO2
KAFO 232335Z AUTO 24005G15KT 10SM BKN060 11/02 A3013 RMK AO2
KAFO 232315Z AUTO 24009G15KT 10SM OVC060 11/02 A3014 RMK AO2
KAFO 232255Z AUTO 22005KT 10SM OVC060 11/03 A3014 RMK AO2
KAFO 232235Z AUTO 17003KT 10SM OVC060 11/03 A3013 RMK AO2
KAFO 232215Z AUTO 16004KT 10SM OVC060 11/03 A3014 RMK AO2
KAFO 232155Z AUTO 27006G17KT 10SM OVC060 12/02 A3015 RMK AO2
KAFO 232135Z AUTO 28004KT 10SM OVC060 12/02 A3016 RMK AO2
KAFO 232115Z AUTO 21005G18KT 10SM OVC060 12/03 A3016 RMK AO2
KAFO 232055Z AUTO 16007KT 10SM BKN060 OVC070 13/03 A3017 RMK AO2
KAFO 232035Z AUTO 10SM BKN060 OVC070 13/03 A3017 RMK AO2
KAFO 232015Z AUTO 15007KT 10SM BKN060 OVC075 13/03 A3018 RMK AO2
KAFO 231955Z AUTO 17005KT 10SM SCT060 OVC075 13/03 A3019 RMK AO2
KAFO 231935Z AUTO 16005KT 10SM OVC075 12/03 A3020 RMK AO2
KAFO 231915Z AUTO 19010G16KT 10SM BKN075 OVC100 12/03 A3022 RMK AO2
KAFO 231855Z AUTO 22003KT 10SM BKN100 10/05 A3023 RMK AO2
KAFO 231835Z AUTO 00000KT 10SM SCT100 05/04 A3023 RMK AO2
KAFO 231815Z AUTO 29006KT 270V060 10SM CLR 03/02 A3025 RMK AO2
KAFO 231755Z AUTO 32003KT 10SM CLR 05/03 A3025 RMK AO2
KAFO 231735Z AUTO 00000KT 10SM SCT120 03/02 A3026 RMK AO2
KAFO 231715Z AUTO 30004KT 10SM CLR 02/02 A3027 RMK AO2
KAFO 231655Z AUTO 00000KT 5SM BR SCT001 02/02 A3028 RMK AO2
KAFO 231635Z AUTO 31003KT 1SM BR OVC001 00/00 A3029 RMK AO2
KAFO 231615Z AUTO 00000KT 1/4SM FZFG OVC001 M01/M01 A3029 RMK AO2
KAFO 231555Z AUTO 00000KT M1/4SM FZFG OVC001 M02/M02 A3029 RMK AO2
KAFO 231535Z AUTO 00000KT 2 1/2SM BR BKN001 M02/M03 A3030 RMK AO2 VIS 3/4V5
KAFO 231515Z AUTO 1 1/4SM BR BKN001 M03/M03 A3030 RMK AO2
KAFO 231455Z AUTO 00000KT M1/4SM FZFG OVC001 M02/M02 A3031 RMK AO2
KAFO 231435Z AUTO 1/2SM FZFG OVC001 M02/M03 A3030 RMK AO2
KAFO 231415Z AUTO 24003KT 1/4SM FZFG OVC001 M03/M03 A3031 RMK AO2
KAFO 231355Z AUTO 00000KT 2 1/2SM BR OVC001 M03/M03 A3032 RMK AO2 VIS 1V5
KAFO 231335Z AUTO 00000KT 1/2SM FZFG OVC001 M02/M03 A3033 RMK AO2
KAFO 231315Z AUTO 00000KT 1/2SM FZFG OVC001 M02/M03 A3033 RMK AO2
KAFO 231255Z AUTO 00000KT 1/4SM FZFG OVC001 M02/M03 A3034 RMK AO2
KAFO 231235Z AUTO 00000KT 1/4SM FZFG OVC001 M02/M03 A3034 RMK AO2
KAFO 231215Z AUTO 28007KT 1/2SM FZFG OVC001 M02/M03 A3034 RMK AO2
KAFO 231155Z AUTO 00000KT M1/4SM FZFG OVC001 M02/M02 A3034 RMK AO2
KAFO 231135Z AUTO 00000KT 1 3/4SM BR OVC001 M02/M02 A3034 RMK AO2 VIS 1/2V5
KAFO 231115Z AUTO 00000KT 5SM BR CLR M02/M02 A3035 RMK AO2
KAFO 231055Z AUTO 3SM BR SCT001 M02/M02 A3036 RMK AO2
KAFO 231035Z AUTO 00000KT 1/4SM FZFG OVC001 M02/M03 A3036 RMK AO2
KAFO 231015Z AUTO 00000KT 1/2SM FZFG OVC001 M02/M02 A3035 RMK AO2
KAFO 230955Z AUTO 00000KT 7SM BKN001 M02/M02 A3037 RMK AO2
KAFO 230935Z AUTO 00000KT 1/2SM FZFG OVC001 M02/M02 A3037 RMK AO2
KAFO 230915Z AUTO 00000KT 1/4SM FZFG OVC001 M02/M03 A3037 RMK AO2
KAFO 230855Z AUTO 00000KT 1 3/4SM BR SCT001 M01/M02 A3036 RMK AO2
KAFO 230835Z AUTO 10SM CLR M01/M02 A3037 RMK AO2
KAFO 230815Z AUTO 00000KT 10SM CLR M01/M01 A3037 RMK AO2
KAFO 230755Z AUTO 00000KT 10SM CLR 00/M01 A3038 RMK AO2
KAFO 230735Z AUTO 00000KT 10SM CLR M01/M02 A3039 RMK AO2
KAFO 230715Z AUTO 00000KT 10SM CLR M01/M01 A3040 RMK AO2
KAFO 230655Z AUTO 00000KT 10SM CLR M01/M01 A3040 RMK AO2
KAFO 230635Z AUTO 10SM CLR 00/M01 A3041 RMK AO2